Time;durP1;ratioP1;P1;durP2;ratioP2;P2;SDS_P1;SDS_P2;PMS_P1;PMS_P2;Temp;Humidity;BMP_temperature;BMP_pressure;BME280_temperature;BME280_humidity;BME280_pressure;Samples;Min_cycle;Max_cycle;Signal;HPM_P1;HPM_P2
2022/11/11 00:02:02;;;;;;;8.38;6.88;;;;;;;6.83;87.29;99613.38;4971260;28;20089;-86
2022/11/11 00:04:28;;;;;;;13.90;8.50;;;;;;;6.86;86.48;99610.50;4972402;28;20118;-86
2022/11/11 00:06:53;;;;;;;12.90;8.40;;;;;;;6.83;86.02;99615.16;4971384;28;20392;-86
2022/11/11 00:09:19;;;;;;;11.27;8.35;;;;;;;6.76;85.45;99619.28;4968316;28;20125;-87
2022/11/11 00:11:44;;;;;;;10.85;8.57;;;;;;;6.73;84.52;99619.59;4972328;28;20031;-86
2022/11/11 00:14:10;;;;;;;12.23;7.90;;;;;;;6.71;84.52;99611.88;4973251;28;20035;-86
2022/11/11 00:25:09;;;;;;;8.32;6.57;;;;;;;6.65;85.47;99592.38;4972839;28;20042;-86
2022/11/11 00:27:35;;;;;;;9.38;7.13;;;;;;;6.55;85.14;99596.81;4971916;28;20046;-86
2022/11/11 00:30:00;;;;;;;11.07;7.05;;;;;;;6.57;85.56;99594.88;4973417;28;20391;-86
2022/11/11 00:32:27;;;;;;;11.23;7.32;;;;;;;6.55;85.29;99607.22;4973328;28;20039;-86
2022/11/11 00:37:41;;;;;;;9.57;7.20;;;;;;;6.46;87.98;99605.44;4973351;28;20482;-86
2022/11/11 00:40:10;;;;;;;12.00;7.63;;;;;;;6.41;86.52;99599.78;4973422;28;20113;-86
2022/11/11 00:42:36;;;;;;;11.38;7.13;;;;;;;6.34;85.17;99603.91;4973803;28;20058;-86
2022/11/11 00:45:03;;;;;;;12.85;7.97;;;;;;;6.26;86.00;99596.78;4972612;28;20093;-86
2022/11/11 00:53:18;;;;;;;9.18;6.90;;;;;;;6.28;87.82;99622.69;4969441;28;20092;-87
2022/11/11 00:55:45;;;;;;;12.38;7.32;;;;;;;6.32;87.14;99624.09;4972735;28;20035;-87
2022/11/11 00:58:11;;;;;;;8.65;6.78;;;;;;;6.33;85.91;99628.31;4972522;28;20045;-87
2022/11/11 01:00:36;;;;;;;9.57;6.85;;;;;;;6.34;85.66;99633.41;4972824;28;20109;-87
2022/11/11 01:03:03;;;;;;;10.40;7.57;;;;;;;6.36;85.65;99648.91;4971621;28;20042;-87
2022/11/11 01:05:28;;;;;;;10.13;6.50;;;;;;;6.33;85.75;99644.78;4971648;28;20042;-86
2022/11/11 01:07:54;;;;;;;11.13;7.20;;;;;;;6.34;85.53;99646.44;4972072;28;20035;-86
2022/11/11 01:13:14;;;;;;;7.75;6.32;;;;;;;6.43;85.51;99650.84;4983154;28;20053;-86
2022/11/11 01:15:44;;;;;;;9.38;6.55;;;;;;;6.48;85.51;99652.19;4972968;28;20494;-86
2022/11/11 01:18:13;;;;;;;9.68;6.30;;;;;;;6.47;85.29;99651.38;4972557;28;20026;-87
2022/11/11 01:20:40;;;;;;;8.23;6.47;;;;;;;6.44;85.07;99643.84;4973150;28;20042;-86
2022/11/11 01:23:09;;;;;;;11.48;6.53;;;;;;;6.40;84.87;99643.28;4986731;28;20043;-86
2022/11/11 01:25:37;;;;;;;8.18;6.07;;;;;;;6.41;84.84;99644.09;4972924;28;20039;-87
2022/11/11 01:28:04;;;;;;;9.00;6.85;;;;;;;6.36;84.84;99638.50;4972303;28;20038;-86
2022/11/11 01:30:32;;;;;;;10.77;6.40;;;;;;;6.38;85.36;99641.78;4972985;28;20062;-86
2022/11/11 01:32:58;;;;;;;7.95;6.32;;;;;;;6.37;85.70;99642.75;4971985;28;20085;-86
2022/11/11 01:35:24;;;;;;;6.55;5.72;;;;;;;6.36;85.49;99647.13;4984024;28;20530;-86
2022/11/11 01:37:50;;;;;;;9.23;5.75;;;;;;;6.34;85.78;99643.81;4972017;28;20041;-86
2022/11/11 01:40:16;;;;;;;8.35;6.18;;;;;;;6.37;85.51;99643.56;4971551;28;20075;-87
2022/11/11 01:43:03;;;;;;;11.10;6.38;;;;;;;6.40;85.33;99639.84;4972477;28;20077;-87
2022/11/11 01:45:58;;;;;;;10.05;6.13;;;;;;;6.42;85.21;99645.78;4973301;28;20518;-86
2022/11/11 01:51:51;;;;;;;8.88;6.57;;;;;;;6.24;83.59;99652.56;4972173;28;20486;-87
2022/11/11 01:54:24;;;;;;;8.40;6.68;;;;;;;6.01;83.67;99650.19;4968502;28;20039;-87
2022/11/11 01:57:01;;;;;;;7.35;6.03;;;;;;;6.06;84.74;99647.22;4972422;28;20031;-86
2022/11/11 01:59:30;;;;;;;7.93;6.20;;;;;;;6.12;84.90;99647.50;4971524;28;20118;-86
2022/11/11 02:01:57;;;;;;;11.07;6.78;;;;;;;6.07;84.59;99652.28;4969108;28;20038;-86
2022/11/11 02:07:09;;;;;;;9.38;5.65;;;;;;;6.16;84.85;99656.66;4971651;28;20680;-86
2022/11/11 02:09:40;;;;;;;8.32;6.35;;;;;;;6.19;84.67;99657.38;4971555;28;20093;-86
2022/11/11 02:14:58;;;;;;;9.65;6.32;;;;;;;6.15;84.55;99657.63;4971601;28;20037;-87
2022/11/11 02:17:27;;;;;;;11.05;6.60;;;;;;;6.11;84.83;99642.41;4969922;28;20463;-86
2022/11/11 02:20:00;;;;;;;11.02;6.40;;;;;;;6.18;85.15;99656.56;4970970;28;20069;-86
2022/11/11 02:22:55;;;;;;;8.30;6.00;;;;;;;6.15;84.40;99657.63;4971563;28;20046;-86
2022/11/11 02:25:27;;;;;;;8.00;5.80;;;;;;;6.16;84.63;99654.06;4970234;28;20033;-87
2022/11/11 02:28:00;;;;;;;12.73;6.43;;;;;;;6.15;84.62;99647.22;4971648;28;20043;-86
2022/11/11 02:30:25;;;;;;;10.07;5.80;;;;;;;6.14;83.91;99642.97;4970246;28;20579;-86
2022/11/11 02:32:53;;;;;;;9.02;6.15;;;;;;;6.13;83.88;99636.13;4970834;28;20283;-87
2022/11/11 02:35:30;;;;;;;8.13;6.07;;;;;;;6.12;83.70;99637.06;4970592;28;20052;-86
2022/11/11 02:37:55;;;;;;;7.32;6.28;;;;;;;6.08;83.63;99629.66;4970856;28;21460;-86
2022/11/11 02:40:37;;;;;;;8.02;5.70;;;;;;;6.06;83.51;99637.59;4971038;28;20053;-86
2022/11/11 02:43:04;;;;;;;8.95;6.13;;;;;;;6.07;83.74;99649.66;4971490;28;20045;-86
2022/11/11 02:45:30;;;;;;;8.18;6.15;;;;;;;6.04;83.37;99655.13;4987431;28;20053;-86
2022/11/11 02:47:55;;;;;;;7.78;5.72;;;;;;;6.00;83.16;99648.56;4972503;28;20030;-86
2022/11/11 02:50:21;;;;;;;9.23;6.40;;;;;;;6.00;83.30;99643.34;4971879;28;20576;-86
2022/11/11 02:52:47;;;;;;;7.53;5.90;;;;;;;5.96;82.96;99639.34;4966298;28;20038;-83
2022/11/11 02:55:12;;;;;;;9.95;6.28;;;;;;;5.96;83.14;99647.16;4968887;28;20047;-83
2022/11/11 02:57:38;;;;;;;8.65;6.00;;;;;;;5.90;82.85;99638.06;4968577;28;20034;-84
2022/11/11 03:00:05;;;;;;;8.70;5.65;;;;;;;5.94;82.70;99645.63;4967694;28;20041;-82
2022/11/11 03:02:31;;;;;;;8.05;5.68;;;;;;;5.92;82.58;99656.19;4968902;28;20466;-83
2022/11/11 03:04:57;;;;;;;7.55;5.85;;;;;;;5.88;83.46;99657.41;4968777;28;20045;-82
2022/11/11 03:07:24;;;;;;;10.68;6.28;;;;;;;5.78;82.51;99664.34;4968129;28;20043;-83
2022/11/11 03:09:50;;;;;;;8.55;6.07;;;;;;;5.71;82.48;99669.25;4967428;28;20090;-83
2022/11/11 03:12:16;;;;;;;7.72;6.47;;;;;;;5.71;82.86;99669.25;4968110;28;20031;-83
2022/11/11 03:14:42;;;;;;;7.70;5.80;;;;;;;5.71;83.43;99665.81;4968472;28;20045;-83
2022/11/11 03:21:03;;;;;;;8.82;5.95;;;;;;;5.70;83.81;99656.34;4967582;28;20679;-83
2022/11/11 03:22:39;;;;;;;9.63;5.80;;;;;;;5.69;83.24;99652.09;4969403;28;20046;-83
2022/11/11 03:27:49;;;;;;;7.38;5.63;;;;;;;5.61;83.18;99643.16;4967491;28;20034;-83
2022/11/11 03:30:14;;;;;;;8.30;5.93;;;;;;;5.60;83.06;99646.72;4966169;28;20090;-83
2022/11/11 03:32:40;;;;;;;7.63;5.35;;;;;;;5.61;83.75;99648.34;4967792;28;20046;-83
2022/11/11 03:35:06;;;;;;;8.15;5.53;;;;;;;5.56;83.91;99637.50;4966338;28;20041;-82
2022/11/11 03:40:15;;;;;;;7.40;5.60;;;;;;;5.56;84.33;99647.91;4966595;28;20383;-83
2022/11/11 03:42:42;;;;;;;8.88;5.22;;;;;;;5.54;84.55;99649.84;4966615;28;20035;-83
2022/11/11 03:45:08;;;;;;;9.10;5.47;;;;;;;5.55;84.91;99661.06;4971755;28;20226;-83
2022/11/11 03:47:33;;;;;;;7.50;5.60;;;;;;;5.54;85.26;99662.03;4968365;28;20147;-83
2022/11/11 03:49:59;;;;;;;7.93;5.60;;;;;;;5.47;84.62;99656.53;4967108;28;20075;-82
2022/11/11 03:52:24;;;;;;;6.22;4.82;;;;;;;5.49;85.51;99659.81;4964404;28;20050;-83
2022/11/11 03:54:50;;;;;;;7.55;5.55;;;;;;;5.45;84.28;99650.59;4967624;28;20045;-83
2022/11/11 03:57:31;;;;;;;8.18;5.43;;;;;;;5.44;83.81;99651.56;4966960;28;20046;-83
2022/11/11 03:59:56;;;;;;;8.80;5.95;;;;;;;5.44;84.07;99661.97;4969376;28;20038;-83
2022/11/11 04:10:35;;;;;;;10.45;5.85;;;;;;;5.34;83.34;99674.94;4965488;28;20050;-82
2022/11/11 04:16:06;;;;;;;7.35;5.50;;;;;;;5.38;84.27;99678.09;4967347;28;20505;-83
2022/11/11 04:21:42;;;;;;;6.05;4.75;;;;;;;5.45;83.82;99668.81;4968761;28;20027;-83
2022/11/11 04:27:11;;;;;;;9.18;5.55;;;;;;;5.56;84.68;99680.94;4967570;28;20101;-83
2022/11/11 04:29:36;;;;;;;7.97;5.18;;;;;;;5.56;84.89;99686.97;4967665;28;20126;-83
2022/11/11 04:34:59;;;;;;;7.25;5.88;;;;;;;5.67;84.62;99687.84;4966546;28;20042;-82
2022/11/11 04:37:29;;;;;;;5.43;4.93;;;;;;;5.68;84.64;99689.50;4967187;28;20748;-82
2022/11/11 04:42:38;;;;;;;6.65;5.15;;;;;;;5.69;83.99;99707.56;4967472;28;20046;-82
2022/11/11 04:48:03;;;;;;;7.65;5.80;;;;;;;5.57;82.16;99704.22;4968461;28;20058;-83
2022/11/11 04:50:35;;;;;;;8.25;5.93;;;;;;;5.56;82.57;99710.38;4969866;28;20038;-83
2022/11/11 04:53:04;;;;;;;10.55;5.57;;;;;;;5.47;82.83;99698.16;4981196;28;20471;-83
2022/11/11 04:58:19;;;;;;;8.07;5.82;;;;;;;5.52;83.37;99711.63;4969859;28;20039;-83
2022/11/11 05:00:45;;;;;;;8.55;6.13;;;;;;;5.47;83.41;99713.78;4970325;28;20057;-83
2022/11/11 05:03:15;;;;;;;9.18;5.47;;;;;;;5.48;83.40;99720.63;4969749;28;20038;-82
2022/11/11 05:11:29;;;;;;;9.50;5.68;;;;;;;5.48;83.21;99720.63;4969737;28;20041;-83
2022/11/11 05:22:29;;;;;;;10.45;5.22;;;;;;;5.42;83.27;99717.69;4969709;28;20050;-82
2022/11/11 05:27:40;;;;;;;7.68;5.10;;;;;;;5.39;83.15;99716.16;4970935;28;20538;-82
2022/11/11 05:30:08;;;;;;;7.07;5.10;;;;;;;5.36;83.42;99724.25;4970298;28;20070;-82
2022/11/11 05:32:34;;;;;;;8.50;5.30;;;;;;;5.34;83.58;99721.78;4969868;28;20046;-82
2022/11/11 05:35:04;;;;;;;6.57;4.63;;;;;;;5.31;84.22;99721.19;4969853;28;20130;-82
2022/11/11 05:37:29;;;;;;;7.30;5.65;;;;;;;5.29;83.58;99734.31;4970118;28;20039;-82
2022/11/11 05:39:55;;;;;;;8.00;5.03;;;;;;;5.31;84.13;99739.41;4968739;28;20376;-82
2022/11/11 05:42:20;;;;;;;6.00;4.93;;;;;;;5.30;84.22;99733.38;4969107;28;20104;-83
2022/11/11 05:44:46;;;;;;;6.78;5.22;;;;;;;5.33;84.00;99737.47;4968629;28;20169;-83
2022/11/11 05:47:12;;;;;;;6.10;4.60;;;;;;;5.34;83.64;99744.38;4984837;28;20527;-82
2022/11/11 05:49:39;;;;;;;8.23;5.60;;;;;;;5.34;83.48;99744.38;4969675;28;20114;-82
2022/11/11 05:52:07;;;;;;;8.90;5.15;;;;;;;5.31;83.18;99740.22;4967814;28;20110;-82
2022/11/11 05:54:32;;;;;;;6.50;4.82;;;;;;;5.33;82.93;99748.72;4964948;28;20085;-83
2022/11/11 05:56:59;;;;;;;8.10;5.00;;;;;;;5.31;82.26;99752.41;4969730;28;20188;-83
2022/11/11 05:59:25;;;;;;;7.35;4.85;;;;;;;5.28;82.16;99755.28;4968778;28;20349;-83
2022/11/11 06:01:50;;;;;;;7.93;4.60;;;;;;;5.23;81.81;99762.63;4967338;28;20041;-82
2022/11/11 06:04:15;;;;;;;8.43;4.22;;;;;;;5.16;81.81;99754.50;4968902;28;20049;-82
2022/11/11 06:06:41;;;;;;;6.28;4.55;;;;;;;5.13;82.56;99762.53;4968957;28;20127;-82
2022/11/11 06:09:06;;;;;;;10.15;4.53;;;;;;;5.12;83.27;99762.66;4968940;28;20030;-83
2022/11/11 06:11:32;;;;;;;6.85;4.72;;;;;;;5.13;83.10;99761.72;4969378;28;20037;-82
2022/11/11 06:13:58;;;;;;;5.97;4.78;;;;;;;5.09;83.16;99767.13;4968903;28;20386;-82
2022/11/11 06:16:23;;;;;;;7.65;5.10;;;;;;;5.12;83.81;99765.25;4969042;28;20475;-82
2022/11/11 06:18:50;;;;;;;8.63;4.97;;;;;;;5.10;83.48;99762.78;4969271;28;20491;-83
2022/11/11 06:21:17;;;;;;;6.85;4.75;;;;;;;5.08;83.31;99775.91;4967157;28;20042;-83
2022/11/11 06:23:43;;;;;;;7.13;4.53;;;;;;;5.08;83.25;99765.50;4983490;28;20066;-83
2022/11/11 06:26:12;;;;;;;7.07;5.07;;;;;;;5.00;82.44;99757.50;4968445;28;20043;-83
2022/11/11 06:28:50;;;;;;;7.55;5.20;;;;;;;4.93;82.08;99765.91;4969323;28;20034;-83
2022/11/11 06:31:23;;;;;;;7.75;5.50;;;;;;;4.72;82.79;99760.63;4966431;28;20047;-83
2022/11/11 06:33:49;;;;;;;6.55;5.22;;;;;;;4.78;83.78;99763.56;4968792;28;20038;-83
2022/11/11 06:36:18;;;;;;;8.23;5.40;;;;;;;4.81;83.82;99762.53;4968499;28;20034;-82
2022/11/11 06:38:44;;;;;;;6.88;5.35;;;;;;;4.84;83.68;99767.47;4968132;28;20031;-84
2022/11/11 06:41:11;;;;;;;9.48;5.68;;;;;;;4.89;83.99;99767.94;4968175;28;20043;-82
2022/11/11 06:43:39;;;;;;;7.72;5.68;;;;;;;4.87;83.41;99762.03;4968995;28;20108;-82
2022/11/11 06:46:05;;;;;;;9.32;5.80;;;;;;;4.93;83.42;99761.53;4969031;28;20407;-82
2022/11/11 06:48:31;;;;;;;7.43;5.35;;;;;;;4.89;82.89;99754.94;4968260;28;20035;-82
2022/11/11 06:51:05;;;;;;;7.82;5.70;;;;;;;4.88;82.45;99757.66;4966823;28;20042;-82
2022/11/11 06:53:31;;;;;;;10.07;5.88;;;;;;;4.73;82.27;99759.69;4965760;28;20038;-83
2022/11/11 06:55:57;;;;;;;8.30;5.43;;;;;;;4.72;83.58;99758.03;4966183;28;20070;-83
2022/11/11 06:58:24;;;;;;;5.82;5.00;;;;;;;4.77;84.68;99758.50;4966242;28;20107;-83
2022/11/11 07:00:50;;;;;;;5.55;4.72;;;;;;;4.92;84.45;99764.25;4967576;28;20047;-83
2022/11/11 07:03:19;;;;;;;9.23;4.95;;;;;;;5.02;84.37;99768.59;4967640;28;20494;-83
2022/11/11 07:05:45;;;;;;;10.45;5.15;;;;;;;5.15;84.06;99775.41;4966705;28;20062;-83
2022/11/11 07:08:15;;;;;;;5.80;4.97;;;;;;;5.25;83.73;99776.31;4966543;28;20067;-82
2022/11/11 07:10:46;;;;;;;6.95;5.00;;;;;;;5.34;83.47;99781.59;4964663;28;20557;-83
2022/11/11 07:13:14;;;;;;;9.95;5.78;;;;;;;5.39;83.42;99778.59;4965733;28;20105;-83
2022/11/11 07:15:41;;;;;;;7.50;5.25;;;;;;;5.37;82.92;99777.91;4968638;28;20511;-83
2022/11/11 07:18:08;;;;;;;8.85;5.45;;;;;;;5.49;82.67;99789.94;4967813;28;20030;-82
2022/11/11 07:20:33;;;;;;;7.60;5.22;;;;;;;5.56;82.97;99780.66;4975002;28;20109;-82
2022/11/11 07:22:59;;;;;;;7.30;5.22;;;;;;;5.61;82.34;99791.53;4966939;28;20043;-83
2022/11/11 07:25:27;;;;;;;8.05;5.25;;;;;;;5.72;82.86;99793.25;4967983;28;20443;-83
2022/11/11 07:27:52;;;;;;;6.53;5.13;;;;;;;5.83;82.74;99792.34;4967257;28;20101;-83
2022/11/11 07:30:18;;;;;;;7.10;4.97;;;;;;;5.92;82.79;99794.22;4967046;28;20051;-83
2022/11/11 07:32:49;;;;;;;9.38;5.03;;;;;;;6.06;82.61;99791.28;4968008;28;20042;-82
2022/11/11 07:35:17;;;;;;;7.53;5.45;;;;;;;6.19;82.25;99777.22;4966042;28;20043;-82
2022/11/11 07:37:43;;;;;;;6.38;4.97;;;;;;;6.30;81.83;99790.16;4968053;28;20037;-83
2022/11/11 07:40:12;;;;;;;8.98;5.65;;;;;;;6.37;81.36;99788.69;4968192;28;20045;-82
2022/11/11 07:42:40;;;;;;;8.02;5.28;;;;;;;6.42;81.28;99789.94;4982053;28;20038;-82
2022/11/11 07:45:07;;;;;;;13.60;7.82;;;;;;;6.45;81.23;99799.28;4967088;28;20030;-82
2022/11/11 07:47:35;;;;;;;8.93;6.72;;;;;;;6.49;81.28;99805.88;4967818;28;20043;-82
2022/11/11 07:50:04;;;;;;;8.73;7.32;;;;;;;6.55;82.27;99801.91;4965493;28;20478;-82
2022/11/11 07:52:30;;;;;;;8.32;6.38;;;;;;;6.58;82.75;99797.25;4965132;28;20042;-82
2022/11/11 07:54:55;;;;;;;9.30;6.38;;;;;;;6.68;83.55;99805.94;4963359;28;20042;-82
2022/11/11 07:57:21;;;;;;;10.02;5.68;;;;;;;6.85;83.96;99801.88;4966937;28;20043;-83
2022/11/11 07:59:46;;;;;;;9.02;5.75;;;;;;;6.93;82.20;99803.78;4968783;28;20042;-83
2022/11/11 08:02:13;;;;;;;7.45;5.95;;;;;;;6.96;82.55;99803.53;4968835;28;20078;-83
2022/11/11 08:04:38;;;;;;;12.07;6.78;;;;;;;7.05;82.70;99807.13;4969547;28;20783;-83
2022/11/11 08:07:04;;;;;;;11.68;5.95;;;;;;;7.07;83.06;99808.63;4968017;28;20046;-82
2022/11/11 08:09:30;;;;;;;9.80;6.95;;;;;;;7.13;83.96;99800.25;4969239;28;20046;-83
2022/11/11 08:14:39;;;;;;;10.07;6.45;;;;;;;7.28;82.12;99792.03;4969646;28;20048;-83
2022/11/11 08:17:05;;;;;;;10.70;7.00;;;;;;;7.38;81.86;99798.91;4968809;28;20023;-83
2022/11/11 08:19:30;;;;;;;9.73;6.82;;;;;;;7.37;81.62;99791.19;4968911;28;20074;-83
2022/11/11 08:21:56;;;;;;;10.52;7.85;;;;;;;7.40;82.16;99801.38;4969619;28;20043;-83
2022/11/11 08:24:22;;;;;;;11.85;6.50;;;;;;;7.46;82.56;99803.44;4971920;28;20054;-83
2022/11/11 08:26:48;;;;;;;8.90;7.22;;;;;;;7.46;82.42;99804.25;4970610;28;20167;-83
2022/11/11 08:29:14;;;;;;;11.88;6.15;;;;;;;7.56;82.65;99795.56;4972509;28;20038;-83
2022/11/11 08:31:39;;;;;;;9.70;6.13;;;;;;;7.59;82.81;99798.75;4970428;28;20035;-83
2022/11/11 08:34:05;;;;;;;9.77;5.85;;;;;;;7.66;81.64;99802.44;4972020;28;20030;-83
2022/11/11 08:36:31;;;;;;;6.47;5.15;;;;;;;7.58;80.48;99797.09;4972040;28;20113;-83
2022/11/11 08:38:56;;;;;;;8.48;5.28;;;;;;;7.69;80.77;99796.97;4972025;28;20054;-83
2022/11/11 08:41:22;;;;;;;8.88;5.38;;;;;;;7.89;80.21;99795.13;4971426;28;20030;-83
2022/11/11 08:43:52;;;;;;;7.13;5.60;;;;;;;7.98;80.38;99798.69;4972281;28;20047;-84
2022/11/11 08:46:18;;;;;;;8.00;5.78;;;;;;;8.01;80.40;99801.00;4972520;28;20090;-83
2022/11/11 08:48:43;;;;;;;7.72;5.40;;;;;;;8.15;79.59;99816.22;4971826;28;20498;-84
2022/11/11 08:51:09;;;;;;;8.68;6.30;;;;;;;8.30;81.31;99806.16;4972623;28;20129;-83
2022/11/11 08:53:34;;;;;;;6.65;5.50;;;;;;;8.29;80.78;99815.78;4968962;28;20034;-83
2022/11/11 08:56:02;;;;;;;9.93;6.00;;;;;;;8.37;81.77;99817.72;4979565;28;20062;-83
2022/11/11 08:58:28;;;;;;;8.30;5.53;;;;;;;8.40;80.43;99811.41;4971076;28;20038;-83
2022/11/11 09:00:54;;;;;;;11.95;6.57;;;;;;;8.39;80.52;99814.94;4969413;28;20031;-83
2022/11/11 09:03:19;;;;;;;7.00;5.70;;;;;;;8.50;80.61;99825.22;4969727;28;20125;-83
2022/11/11 09:05:46;;;;;;;7.30;5.38;;;;;;;8.68;79.88;99822.69;4970013;28;20045;-84
2022/11/11 09:08:12;;;;;;;9.70;6.05;;;;;;;8.68;79.65;99814.84;4969603;28;20030;-83
2022/11/11 09:10:38;;;;;;;7.18;5.45;;;;;;;8.85;79.85;99816.66;4969940;28;20617;-83
2022/11/11 09:13:05;;;;;;;8.70;6.10;;;;;;;9.00;79.47;99822.25;4969970;28;20041;-84
2022/11/11 09:15:31;;;;;;;8.38;5.60;;;;;;;9.10;79.26;99815.13;4970891;28;20110;-83
2022/11/11 09:18:00;;;;;;;10.75;7.28;;;;;;;9.07;78.32;99815.44;4971265;28;20045;-84
2022/11/11 09:20:26;;;;;;;11.93;6.80;;;;;;;9.20;79.24;99820.31;4971100;28;20027;-84
2022/11/11 09:22:52;;;;;;;6.85;5.93;;;;;;;9.28;79.26;99828.25;4969428;28;20046;-84
2022/11/11 09:25:19;;;;;;;8.30;5.95;;;;;;;9.44;79.60;99824.97;4971305;28;20616;-84
2022/11/11 09:27:56;;;;;;;7.85;5.85;;;;;;;9.49;79.21;99825.34;4971053;28;20050;-85
2022/11/11 09:30:23;;;;;;;7.93;5.90;;;;;;;9.51;78.78;99828.63;4969065;28;20067;-84
2022/11/11 09:32:50;;;;;;;9.45;5.68;;;;;;;9.56;79.13;99836.84;4970967;28;20375;-83
2022/11/11 09:35:15;;;;;;;8.55;6.38;;;;;;;9.60;79.42;99843.44;4970838;28;20490;-84
2022/11/11 09:37:41;;;;;;;10.23;6.43;;;;;;;9.72;79.23;99837.00;4970164;28;20081;-84
2022/11/11 09:40:16;;;;;;;7.47;6.40;;;;;;;9.81;79.09;99838.69;4971039;28;20035;-83
2022/11/11 09:42:54;;;;;;;8.50;6.50;;;;;;;9.84;79.30;99841.03;4969570;28;20031;-84
2022/11/11 09:45:28;;;;;;;11.15;6.30;;;;;;;9.88;79.15;99844.16;4970728;28;20070;-84
2022/11/11 09:48:15;;;;;;;10.50;6.40;;;;;;;9.99;78.81;99837.84;4970008;28;20043;-83
2022/11/11 09:50:47;;;;;;;10.63;6.60;;;;;;;10.13;78.98;99845.13;4971316;28;20031;-83
2022/11/11 09:53:31;;;;;;;10.73;6.28;;;;;;;10.27;78.67;99852.50;4965578;28;20023;-84
2022/11/11 09:56:07;;;;;;;8.93;6.45;;;;;;;10.36;78.10;99851.53;4970038;28;20039;-82
2022/11/11 09:58:50;;;;;;;10.00;7.15;;;;;;;10.34;78.37;99836.97;4969363;28;20046;-83
2022/11/11 10:01:24;;;;;;;9.98;6.75;;;;;;;10.57;78.95;99845.09;4969460;28;20110;-83
2022/11/11 10:04:20;;;;;;;10.93;6.38;;;;;;;10.63;78.90;99847.09;4969820;28;20063;-83
2022/11/11 10:06:52;;;;;;;11.38;6.82;;;;;;;10.85;80.09;99843.91;4970060;28;20035;-83
2022/11/11 10:09:37;;;;;;;10.10;6.88;;;;;;;11.06;78.19;99842.66;4969470;28;20046;-83
2022/11/11 10:12:11;;;;;;;10.13;7.03;;;;;;;11.13;77.65;99843.66;4968492;28;20045;-83
2022/11/11 10:14:44;;;;;;;9.65;7.57;;;;;;;11.37;77.35;99846.34;4970460;28;20030;-83
2022/11/11 10:17:36;;;;;;;10.90;7.65;;;;;;;11.42;76.66;99837.97;4983971;28;20034;-83
2022/11/11 10:20:29;;;;;;;12.90;7.13;;;;;;;11.45;75.08;99848.97;4969191;28;20169;-84
2022/11/11 10:23:12;;;;;;;10.88;6.57;;;;;;;11.53;75.83;99835.03;4968739;28;20390;-83
2022/11/11 10:25:49;;;;;;;9.43;6.72;;;;;;;11.67;75.60;99833.56;4967621;28;20567;-83
2022/11/11 10:28:19;;;;;;;9.95;6.65;;;;;;;11.90;75.45;99836.38;4969903;28;20489;-84
2022/11/11 10:30:47;;;;;;;8.37;6.53;;;;;;;11.94;75.39;99828.00;4967883;28;20498;-82
2022/11/11 10:33:35;;;;;;;8.88;7.25;;;;;;;12.13;75.98;99823.38;4968910;28;20278;-83
2022/11/11 10:36:05;;;;;;;9.55;6.75;;;;;;;12.19;74.75;99820.06;4969061;28;20038;-83
2022/11/11 10:38:34;;;;;;;8.68;7.03;;;;;;;12.29;74.94;99815.44;4968729;28;20050;-83
2022/11/11 10:41:48;;;;;;;8.98;7.32;;;;;;;12.45;74.68;99828.53;4968533;28;20039;-83
2022/11/11 10:44:25;;;;;;;9.10;7.43;;;;;;;12.45;71.77;99815.38;4968340;28;20549;-83
2022/11/11 10:47:38;;;;;;;10.13;7.55;;;;;;;12.43;73.70;99817.38;4967300;28;20038;-83
2022/11/11 10:50:15;;;;;;;9.85;7.60;;;;;;;12.52;74.04;99818.97;4965067;28;20031;-82
2022/11/11 10:52:53;;;;;;;9.85;7.85;;;;;;;12.41;73.76;99819.34;4965390;28;20034;-83
2022/11/11 10:55:36;;;;;;;10.82;8.20;;;;;;;12.43;72.17;99822.63;4983447;28;20427;-84
2022/11/11 10:58:19;;;;;;;12.57;7.70;;;;;;;12.70;73.50;99825.81;4968623;28;20030;-84
2022/11/11 11:00:50;;;;;;;11.50;7.28;;;;;;;12.89;73.18;99825.41;4967493;28;20700;-83
2022/11/11 11:03:29;;;;;;;10.30;7.53;;;;;;;13.09;72.41;99829.25;4969371;28;20066;-82
2022/11/11 11:06:21;;;;;;;9.48;7.00;;;;;;;13.33;73.94;99820.41;4967199;28;20066;-83
2022/11/11 11:08:53;;;;;;;8.32;7.15;;;;;;;13.42;71.19;99817.72;4969172;28;20070;-83
2022/11/11 11:11:29;;;;;;;12.73;8.15;;;;;;;13.55;69.62;99817.94;4968536;28;20047;-83
2022/11/11 11:14:02;;;;;;;13.00;7.80;;;;;;;13.64;68.82;99808.97;4980166;28;20038;-83
2022/11/11 11:16:43;;;;;;;10.85;7.47;;;;;;;13.76;69.96;99814.66;4968136;28;20049;-83
2022/11/11 11:19:18;;;;;;;10.25;7.50;;;;;;;13.95;69.54;99811.50;4968686;28;20043;-82
2022/11/11 11:22:03;;;;;;;9.73;7.22;;;;;;;14.08;68.00;99809.06;4969201;28;20068;-82
2022/11/11 11:24:32;;;;;;;12.45;7.35;;;;;;;14.03;66.51;99806.13;4966777;28;20044;-83
2022/11/11 11:27:01;;;;;;;10.13;7.97;;;;;;;14.01;66.61;99802.06;4968077;28;20070;-83
2022/11/11 11:29:42;;;;;;;12.85;7.75;;;;;;;14.16;68.45;99806.34;4969132;28;20050;-83
2022/11/11 11:32:11;;;;;;;;;;;;;;;14.11;66.43;99803.44;4968175;28;20042;-83
2022/11/11 11:34:52;;;;;;;9.68;7.35;;;;;;;13.96;66.42;99794.66;4968851;28;19910;-83
2022/11/11 11:37:21;;;;;;;9.40;7.30;;;;;;;13.82;67.96;99796.28;4968710;28;20415;-83
2022/11/11 11:39:47;;;;;;;10.90;7.20;;;;;;;13.75;68.77;99797.19;4967303;28;20118;-83
2022/11/11 11:42:38;;;;;;;11.75;8.23;;;;;;;13.66;68.90;99799.88;4968087;28;20035;-83
2022/11/11 11:45:20;;;;;;;10.75;8.68;;;;;;;13.66;67.66;99789.34;4968069;28;20058;-82
2022/11/11 11:48:00;;;;;;;13.02;7.95;;;;;;;13.79;67.30;99785.28;4968477;28;20041;-84
2022/11/11 11:50:26;;;;;;;10.60;8.02;;;;;;;13.92;68.00;99788.13;4967618;28;20114;-83
2022/11/11 11:53:47;;;;;;;13.80;7.90;;;;;;;13.97;67.58;99772.56;4965704;28;20042;-83
2022/11/11 11:56:31;;;;;;;;;;;;;;;14.09;66.32;99792.25;4970191;28;20074;-83
2022/11/11 11:59:20;;;;;;;9.48;7.55;;;;;;;14.14;68.32;99792.50;4971759;28;20336;-82
2022/11/11 12:02:23;;;;;;;10.63;7.95;;;;;;;14.15;65.92;99793.31;4971353;28;20045;-83
2022/11/11 12:05:10;;;;;;;10.63;7.25;;;;;;;14.14;67.86;99784.59;4972515;28;20062;-83
2022/11/11 12:08:15;;;;;;;9.45;7.43;;;;;;;14.18;67.44;99777.97;4971131;28;20038;-83
2022/11/11 12:10:57;;;;;;;18.48;9.38;;;;;;;14.33;69.18;99782.41;4972918;28;20374;-83
2022/11/11 12:14:15;;;;;;;12.82;8.27;;;;;;;14.36;67.21;99784.69;4972021;28;20042;-83
2022/11/11 12:17:02;;;;;;;13.25;8.18;;;;;;;14.30;66.13;99772.22;4971592;28;20034;-83
2022/11/11 12:19:51;;;;;;;11.07;8.00;;;;;;;14.20;67.33;99765.38;4972008;28;20178;-83
2022/11/11 12:22:44;;;;;;;11.00;8.07;;;;;;;14.27;68.24;99764.66;4971392;28;20045;-84
2022/11/11 12:25:27;;;;;;;11.98;8.30;;;;;;;14.44;67.99;99768.75;4972125;28;20026;-84
2022/11/11 12:28:31;;;;;;;9.48;7.55;;;;;;;14.59;68.92;99764.31;4971927;28;20059;-84
2022/11/11 12:31:24;;;;;;;9.38;8.02;;;;;;;14.74;65.84;99759.00;4970684;28;20047;-84
2022/11/11 12:34:31;;;;;;;11.15;8.18;;;;;;;14.78;67.34;99757.63;4972881;28;20073;-84
2022/11/11 12:37:28;;;;;;;11.43;7.32;;;;;;;14.71;67.15;99762.00;4972864;28;20394;-83
2022/11/11 12:40:43;;;;;;;10.02;7.00;;;;;;;14.61;65.90;99759.66;4964167;28;20042;-84
2022/11/11 12:43:28;;;;;;;8.52;6.95;;;;;;;14.69;68.30;99759.56;4972287;28;20046;-84
2022/11/11 12:46:43;;;;;;;9.73;6.53;;;;;;;14.82;67.21;99752.78;4978653;28;20069;-84
2022/11/11 12:49:36;;;;;;;11.05;5.90;;;;;;;14.80;64.46;99754.78;4971780;28;20146;-84
2022/11/11 12:52:56;;;;;;;10.05;6.13;;;;;;;14.80;65.07;99755.59;4972519;28;20039;-84
2022/11/11 12:56:06;;;;;;;9.43;5.55;;;;;;;14.85;65.90;99747.94;4909417;29;20047;-84
2022/11/11 12:58:59;;;;;;;9.77;6.88;;;;;;;14.75;64.94;99744.78;4909194;29;20055;-84
2022/11/11 13:01:36;;;;;;;9.55;7.13;;;;;;;14.81;64.74;99754.59;4968781;28;20049;-84
2022/11/11 13:04:43;;;;;;;8.65;6.78;;;;;;;14.81;67.09;99757.22;4972627;28;20513;-84
2022/11/11 13:07:59;;;;;;;9.75;7.25;;;;;;;14.68;65.80;99757.91;4972543;28;20109;-84
2022/11/11 13:10:50;;;;;;;10.13;6.53;;;;;;;14.63;66.61;99762.09;4972478;28;20114;-84
2022/11/11 13:13:37;;;;;;;9.32;6.55;;;;;;;14.55;65.80;99755.13;4971614;28;20041;-84
2022/11/11 13:16:02;;;;;;;9.00;5.95;;;;;;;14.58;65.03;99756.59;4971965;28;20073;-84
2022/11/11 13:18:54;;;;;;;11.35;5.75;;;;;;;14.65;64.54;99760.94;4970349;28;20066;-84
2022/11/11 13:21:51;;;;;;;9.45;5.25;;;;;;;14.75;68.00;99757.16;4972120;28;20435;-83
2022/11/11 13:24:22;;;;;;;7.47;5.68;;;;;;;14.92;66.25;99754.09;4971686;28;20026;-84
2022/11/11 13:26:58;;;;;;;8.77;5.68;;;;;;;15.08;66.60;99752.25;4971550;28;20122;-84
2022/11/11 13:29:42;;;;;;;11.25;7.50;;;;;;;15.18;66.42;99758.88;4969334;28;20653;-83